Time;durP1;ratioP1;P1;durP2;ratioP2;P2;SDS_P1;SDS_P2;PMS_P1;PMS_P2;Temp;Humidity;BMP_temperature;BMP_pressure;BME280_temperature;BME280_humidity;BME280_pressure;Samples;Min_cycle;Max_cycle;Signal;HPM_P1;HPM_P2
2023/01/09 00:01:16;;;;;;;8.60;6.85;;;;;;;6.90;81.70;95089.34;4978105;28;20051;-81
2023/01/09 00:03:44;;;;;;;7.38;6.65;;;;;;;6.89;80.92;95091.16;4976741;28;20069;-79
2023/01/09 00:06:11;;;;;;;9.82;7.78;;;;;;;6.91;81.07;95078.78;4988253;28;20073;-78
2023/01/09 00:08:39;;;;;;;8.43;7.10;;;;;;;6.92;81.02;95089.97;4995477;28;20398;-80
2023/01/09 00:11:07;;;;;;;10.05;7.97;;;;;;;6.89;80.79;95070.41;4984252;28;20058;-79
2023/01/09 00:13:35;;;;;;;10.85;8.80;;;;;;;6.86;80.63;95070.00;4975892;28;20467;-78
2023/01/09 00:16:04;;;;;;;9.65;8.65;;;;;;;6.80;81.04;95063.81;4986421;28;20508;-77
2023/01/09 00:18:33;;;;;;;7.72;6.93;;;;;;;6.76;81.35;95047.84;4995678;28;20050;-76
2023/01/09 00:21:02;;;;;;;8.40;7.00;;;;;;;6.73;80.83;95043.03;4985566;28;20058;-78
2023/01/09 00:23:30;;;;;;;7.55;6.50;;;;;;;6.72;81.26;95033.69;4978155;28;20050;-79
2023/01/09 00:26:05;;;;;;;7.63;6.72;;;;;;;6.74;81.35;95030.91;4978747;28;20412;-77
2023/01/09 00:28:34;;;;;;;8.65;6.57;;;;;;;6.74;81.43;95025.72;4976881;28;20444;-78
2023/01/09 00:31:02;;;;;;;6.80;5.47;;;;;;;6.74;81.32;95020.53;4988430;28;20046;-79
2023/01/09 00:33:34;;;;;;;7.18;5.95;;;;;;;6.75;81.26;95006.56;4997451;28;20133;-77
2023/01/09 00:36:02;;;;;;;7.78;6.57;;;;;;;6.73;81.55;95004.16;4986181;28;20055;-79
2023/01/09 00:38:30;;;;;;;6.75;6.05;;;;;;;6.73;81.48;95003.38;4977258;28;20051;-79
2023/01/09 00:40:59;;;;;;;6.82;5.72;;;;;;;6.73;81.87;95009.34;4988007;28;20061;-78
2023/01/09 00:43:31;;;;;;;6.82;5.90;;;;;;;6.75;82.14;95001.41;4996760;28;20298;-79
2023/01/09 00:45:59;;;;;;;6.82;6.10;;;;;;;6.77;82.02;94997.59;4985857;28;20047;-77
2023/01/09 00:48:28;;;;;;;7.70;6.00;;;;;;;6.78;82.01;94995.84;4976187;28;20070;-77
2023/01/09 00:50:59;;;;;;;5.72;5.10;;;;;;;6.77;82.01;94996.81;4985862;28;20562;-77
2023/01/09 00:53:29;;;;;;;5.40;4.82;;;;;;;6.79;81.89;95003.38;4995447;28;20050;-78
2023/01/09 00:56:00;;;;;;;5.53;5.00;;;;;;;6.84;81.82;95007.19;4986670;28;20123;-77
2023/01/09 00:58:28;;;;;;;5.25;4.60;;;;;;;6.87;81.91;95014.59;4976592;28;20078;-77
2023/01/09 01:00:56;;;;;;;6.28;4.93;;;;;;;6.89;81.72;95012.59;4985386;28;20057;-77
2023/01/09 01:03:23;;;;;;;4.38;3.97;;;;;;;6.94;81.74;95000.63;4995346;28;20053;-78
2023/01/09 01:08:37;;;;;;;4.88;4.18;;;;;;;6.99;81.28;94987.84;4993962;28;20050;-77
2023/01/09 01:11:09;;;;;;;5.20;3.97;;;;;;;7.04;81.96;95000.25;4985003;28;20050;-79
2023/01/09 01:13:37;;;;;;;6.05;4.55;;;;;;;7.08;81.70;95003.22;4995296;28;20050;-76
2023/01/09 01:16:06;;;;;;;5.18;4.22;;;;;;;7.12;81.65;95012.19;4994119;28;20046;-79
2023/01/09 01:18:33;;;;;;;5.95;4.10;;;;;;;7.13;81.46;95008.63;4995186;28;20050;-78
2023/01/09 01:21:01;;;;;;;4.47;3.85;;;;;;;7.16;81.61;95005.63;4979622;28;20062;-77
2023/01/09 01:23:28;;;;;;;4.72;3.78;;;;;;;7.20;81.54;95014.59;4975640;28;20436;-77
2023/01/09 01:25:57;;;;;;;4.15;3.38;;;;;;;7.25;81.27;95014.00;4989682;28;20114;-78
2023/01/09 01:28:25;;;;;;;5.43;4.05;;;;;;;7.27;81.40;95005.03;4995189;28;20057;-79
2023/01/09 01:30:52;;;;;;;3.67;3.00;;;;;;;7.32;81.50;95002.63;4981532;28;20425;-77
2023/01/09 01:33:20;;;;;;;4.93;3.90;;;;;;;7.35;81.67;95002.22;4976074;28;20051;-77
2023/01/09 01:35:47;;;;;;;3.95;3.35;;;;;;;7.40;81.27;95009.41;4979563;28;20055;-77
2023/01/09 01:38:15;;;;;;;4.55;3.85;;;;;;;7.45;80.83;95006.22;4993132;28;20060;-80
2023/01/09 01:40:42;;;;;;;4.03;3.63;;;;;;;7.47;80.84;95001.63;4997103;28;20073;-79
2023/01/09 01:43:12;;;;;;;3.53;3.00;;;;;;;7.51;80.91;95010.59;4999255;28;20050;-78
2023/01/09 01:45:40;;;;;;;4.72;3.47;;;;;;;7.52;80.61;94999.22;4982883;28;20142;-77
2023/01/09 01:48:11;;;;;;;4.47;3.70;;;;;;;7.55;80.42;95006.63;4980017;28;20047;-77
2023/01/09 01:50:43;;;;;;;4.25;3.15;;;;;;;7.58;80.10;94998.41;4995606;28;20053;-78
2023/01/09 01:53:15;;;;;;;3.67;3.03;;;;;;;7.59;80.35;95002.63;4998984;28;20050;-77
2023/01/09 01:55:48;;;;;;;3.58;2.95;;;;;;;7.58;80.29;94991.41;4982296;28;20288;-77
2023/01/09 01:58:17;;;;;;;3.40;2.90;;;;;;;7.60;80.64;94994.59;4977942;28;20105;-78
2023/01/09 02:00:47;;;;;;;3.58;3.08;;;;;;;7.64;80.61;94995.00;4994086;28;20061;-75
2023/01/09 02:03:17;;;;;;;3.92;3.03;;;;;;;7.68;80.47;94995.41;4997123;28;20058;-77
2023/01/09 02:05:45;;;;;;;3.15;2.75;;;;;;;7.69;80.31;95002.97;4981812;28;20712;-77
2023/01/09 02:08:13;;;;;;;3.45;2.60;;;;;;;7.70;79.94;95009.00;4991967;28;20050;-76
2023/01/09 02:10:41;;;;;;;2.75;2.42;;;;;;;7.72;79.80;95007.78;4997144;28;20058;-77
2023/01/09 02:13:09;;;;;;;2.15;1.95;;;;;;;7.75;79.55;95009.16;4982792;28;20661;-77
2023/01/09 02:15:53;;;;;;;2.30;1.92;;;;;;;7.79;80.06;95007.75;4977508;28;20151;-77
2023/01/09 02:18:33;;;;;;;2.22;1.70;;;;;;;7.82;79.48;95002.94;4991728;28;20054;-77
2023/01/09 02:21:04;;;;;;;2.55;1.85;;;;;;;7.84;79.57;95011.34;4978264;28;20061;-77
2023/01/09 02:24:00;;;;;;;3.83;3.42;;;;;;;7.88;79.20;95001.34;4992755;28;20073;-78
2023/01/09 02:26:57;;;;;;;2.75;2.55;;;;;;;7.90;79.32;95001.94;4997235;28;20054;-77
2023/01/09 02:30:10;;;;;;;4.93;3.13;;;;;;;7.89;79.13;94996.94;4978058;28;20058;-77
2023/01/09 02:32:46;;;;;;;2.95;2.40;;;;;;;7.90;79.49;95008.94;4985158;28;20578;-76
2023/01/09 02:35:26;;;;;;;3.38;2.13;;;;;;;7.88;79.33;95000.56;4997390;28;20448;-77
2023/01/09 02:38:02;;;;;;;2.03;1.80;;;;;;;7.89;79.54;94991.75;4988114;28;20127;-77
2023/01/09 02:40:37;;;;;;;4.53;2.55;;;;;;;7.90;79.58;94993.38;4977700;28;20512;-77
2023/01/09 02:43:06;;;;;;;2.47;1.73;;;;;;;7.89;79.31;94997.75;4987754;28;20054;-77
2023/01/09 02:45:34;;;;;;;5.28;1.85;;;;;;;7.89;79.50;94997.75;4998728;28;20086;-76
2023/01/09 02:48:03;;;;;;;1.10;0.93;;;;;;;7.90;79.29;94996.75;4999478;28;20141;-78
2023/01/09 02:50:36;;;;;;;1.10;1.00;;;;;;;7.92;79.60;94992.16;5001596;28;20046;-79
2023/01/09 02:53:31;;;;;;;1.20;1.10;;;;;;;7.95;80.04;95002.13;4990917;28;20078;-79
2023/01/09 02:56:16;;;;;;;2.70;1.48;;;;;;;7.97;79.88;94999.31;4989706;28;20504;-78
2023/01/09 02:58:58;;;;;;;2.33;0.80;;;;;;;7.97;79.66;94988.94;5001346;28;20049;-80
2023/01/09 03:01:39;;;;;;;1.08;0.95;;;;;;;7.97;79.64;94986.34;4988841;28;20047;-81
2023/01/09 03:04:16;;;;;;;2.83;1.95;;;;;;;7.96;79.67;94982.13;4995919;28;20055;-77
2023/01/09 03:06:49;;;;;;;5.38;2.40;;;;;;;7.94;79.51;94984.97;5000908;28;20050;-78
2023/01/09 03:09:21;;;;;;;3.25;1.95;;;;;;;7.93;80.00;94982.56;4987958;28;20129;-76
2023/01/09 03:11:54;;;;;;;2.37;2.07;;;;;;;7.94;79.33;94986.78;4981853;28;20081;-79
2023/01/09 03:14:25;;;;;;;3.08;2.10;;;;;;;7.93;79.71;94987.75;4994677;28;20069;-79
2023/01/09 03:17:01;;;;;;;1.95;1.45;;;;;;;7.94;79.79;95003.13;5001520;28;20480;-77
2023/01/09 03:19:33;;;;;;;1.75;1.35;;;;;;;7.97;79.90;95009.72;4988230;28;20050;-79
2023/01/09 03:22:01;;;;;;;2.58;1.30;;;;;;;7.98;79.64;95011.28;4982781;28;20054;-81
2023/01/09 03:24:29;;;;;;;1.75;1.20;;;;;;;7.99;79.85;95018.09;4995043;28;20054;-81
2023/01/09 03:26:57;;;;;;;2.35;1.55;;;;;;;8.02;80.04;95020.28;5001952;28;20054;-79
2023/01/09 03:29:24;;;;;;;2.70;1.60;;;;;;;8.04;79.88;95019.06;4990169;28;20057;-79
2023/01/09 03:31:52;;;;;;;1.30;0.95;;;;;;;8.05;79.79;95015.47;5000043;28;20056;-79
2023/01/09 03:34:19;;;;;;;1.30;1.00;;;;;;;8.08;79.75;95016.06;4982271;28;20051;-80
2023/01/09 03:36:48;;;;;;;1.75;0.80;;;;;;;8.10;79.74;95014.06;4999810;28;20133;-79
2023/01/09 03:39:16;;;;;;;0.60;0.60;;;;;;;8.11;79.37;95020.84;4987463;28;20138;-79
2023/01/09 03:41:43;;;;;;;1.35;0.90;;;;;;;8.12;79.51;95030.25;4994257;28;20531;-79
2023/01/09 03:44:10;;;;;;;1.90;0.50;;;;;;;8.12;79.58;95031.03;5001902;28;20050;-79
2023/01/09 03:46:38;;;;;;;1.13;0.70;;;;;;;8.12;79.62;95044.03;4990120;28;20513;-79
2023/01/09 03:49:05;;;;;;;0.50;0.45;;;;;;;8.11;79.74;95042.44;4982108;28;20077;-78
2023/01/09 03:51:33;;;;;;;1.17;0.40;;;;;;;8.11;79.67;95041.63;4992425;28;20058;-81
2023/01/09 03:54:02;;;;;;;1.17;0.40;;;;;;;8.10;79.38;95048.63;4984147;28;20047;-79
2023/01/09 03:56:29;;;;;;;0.40;0.30;;;;;;;8.09;79.45;95054.84;4990284;28;20064;-81
2023/01/09 03:58:57;;;;;;;0.20;0.20;;;;;;;8.08;79.49;95061.00;5000489;28;20046;-79
2023/01/09 04:01:24;;;;;;;1.67;0.20;;;;;;;8.05;79.52;95064.03;4990844;28;20062;-81
2023/01/09 04:03:52;;;;;;;0.50;0.50;;;;;;;8.01;79.40;95068.81;4980732;28;20519;-77
2023/01/09 04:06:20;;;;;;;0.82;0.38;;;;;;;8.01;79.73;95078.41;4981092;28;20051;-77
2023/01/09 04:08:47;;;;;;;0.28;0.28;;;;;;;7.99;79.54;95070.03;4980661;28;20053;-79
2023/01/09 04:11:17;;;;;;;0.17;0.10;;;;;;;7.98;79.45;95071.00;4982350;28;20046;-79
2023/01/09 04:13:44;;;;;;;0.20;0.20;;;;;;;7.97;78.93;95069.44;5000654;28;20089;-79
2023/01/09 04:16:12;;;;;;;0.90;0.20;;;;;;;7.98;78.95;95073.63;4981967;28;20059;-78
2023/01/09 04:18:39;;;;;;;1.55;0.47;;;;;;;7.97;78.82;95072.81;4980344;28;20057;-78
2023/01/09 04:21:07;;;;;;;0.55;0.08;;;;;;;7.97;78.57;95083.22;4997097;28;20053;-80
2023/01/09 04:23:34;;;;;;;0.75;0.20;;;;;;;7.98;78.31;95096.97;4994172;28;20047;-80
2023/01/09 04:26:02;;;;;;;0.03;0.03;;;;;;;7.95;77.82;95089.59;4980068;28;20196;-78
2023/01/09 04:28:31;;;;;;;0.10;0.10;;;;;;;7.93;77.95;95102.00;4983057;28;20448;-80
2023/01/09 04:30:59;;;;;;;0.20;0.20;;;;;;;7.92;78.06;95113.38;4998428;28;20077;-79
2023/01/09 04:33:26;;;;;;;1.95;0.20;;;;;;;7.94;78.63;95114.00;4990799;28;20061;-79
2023/01/09 04:35:54;;;;;;;0.32;0.13;;;;;;;7.94;78.34;95139.94;4979608;28;20493;-78
2023/01/09 04:38:21;;;;;;;0.43;0.10;;;;;;;7.92;78.63;95144.53;4992696;28;20046;-78
2023/01/09 04:40:49;;;;;;;1.25;0.10;;;;;;;7.89;78.17;95156.09;4995093;28;20051;-79
2023/01/09 04:43:16;;;;;;;0.20;0.10;;;;;;;7.87;78.30;95160.72;4979362;28;20756;-78
2023/01/09 04:45:45;;;;;;;1.55;0.13;;;;;;;7.84;78.04;95161.91;4980306;28;20053;-79
2023/01/09 04:48:13;;;;;;;0.10;0.10;;;;;;;7.80;77.61;95165.88;4978490;28;20078;-78
2023/01/09 04:50:40;;;;;;;0.10;0.10;;;;;;;7.76;77.96;95169.91;4982524;28;20042;-79
2023/01/09 04:53:08;;;;;;;0.05;0.00;;;;;;;7.72;78.23;95184.28;4996584;28;20054;-79
2023/01/09 04:55:36;;;;;;;0.10;0.00;;;;;;;7.70;78.18;95173.28;4978722;28;20501;-77
2023/01/09 04:58:03;;;;;;;0.20;0.20;;;;;;;7.72;78.95;95184.28;4978835;28;20051;-78
2023/01/09 05:00:31;;;;;;;1.90;0.50;;;;;;;7.73;79.17;95180.66;4995571;28;20050;-78
2023/01/09 05:03:01;;;;;;;1.00;0.10;;;;;;;7.72;78.68;95179.09;4985837;28;20046;-79
2023/01/09 05:05:29;;;;;;;0.10;0.10;;;;;;;7.72;78.71;95194.66;4987239;28;20113;-80
2023/01/09 05:07:56;;;;;;;0.20;0.17;;;;;;;7.74;78.91;95205.66;4977878;28;20053;-79
2023/01/09 05:10:24;;;;;;;0.50;0.17;;;;;;;7.73;78.78;95204.03;4978419;28;20050;-78
2023/01/09 05:12:51;;;;;;;0.35;0.10;;;;;;;7.73;79.24;95211.03;4996722;28;20051;-77
2023/01/09 05:15:19;;;;;;;0.20;0.20;;;;;;;7.70;79.12;95222.59;4991510;28;20081;-79
2023/01/09 05:17:47;;;;;;;0.35;0.10;;;;;;;7.67;78.65;95238.56;4981193;28;20053;-78
2023/01/09 05:20:16;;;;;;;0.10;0.10;;;;;;;7.57;78.01;95249.31;4995441;28;20515;-78
2023/01/09 05:22:43;;;;;;;0.10;0.10;;;;;;;7.47;77.82;95263.66;4978773;28;20424;-78
2023/01/09 05:25:11;;;;;;;1.60;0.10;;;;;;;7.33;77.97;95263.63;4987329;28;20053;-80
2023/01/09 05:27:38;;;;;;;0.15;0.10;;;;;;;7.23;77.74;95273.53;4986197;28;20058;-82
2023/01/09 05:30:07;;;;;;;0.13;0.10;;;;;;;7.09;77.67;95279.69;5001327;28;20046;-79
2023/01/09 05:32:35;;;;;;;0.47;0.20;;;;;;;6.99;77.66;95287.78;4987008;28;20049;-82
2023/01/09 05:35:03;;;;;;;1.42;0.35;;;;;;;6.93;77.50;95299.75;4982591;28;20061;-82
2023/01/09 05:37:31;;;;;;;1.90;0.57;;;;;;;6.92;77.54;95292.94;4979183;28;20055;-77
2023/01/09 05:39:59;;;;;;;0.25;0.10;;;;;;;6.92;77.03;95292.94;4984825;28;20053;-80
2023/01/09 05:42:26;;;;;;;0.22;0.10;;;;;;;6.94;77.58;95303.94;4978026;28;20520;-78
2023/01/09 05:44:54;;;;;;;5.63;0.38;;;;;;;6.96;77.87;95296.75;4982871;28;20050;-79
2023/01/09 05:47:21;;;;;;;0.82;0.55;;;;;;;6.98;77.91;95302.56;4993585;28;20062;-82
2023/01/09 05:49:49;;;;;;;0.55;0.20;;;;;;;6.97;77.95;95311.31;4983167;28;20062;-81
2023/01/09 05:52:16;;;;;;;1.27;0.30;;;;;;;6.96;77.39;95320.09;4998776;28;20063;-85
2023/01/09 05:54:45;;;;;;;0.22;0.10;;;;;;;6.96;77.05;95330.47;4998183;28;20058;-78
2023/01/09 05:57:13;;;;;;;0.40;0.20;;;;;;;6.95;76.35;95323.69;4998155;28;20057;-84
2023/01/09 05:59:41;;;;;;;1.27;0.52;;;;;;;6.94;76.20;95329.84;4998651;28;20081;-83
2023/01/09 06:02:09;;;;;;;0.60;0.20;;;;;;;6.93;76.44;95330.03;4984832;28;20240;-83
2023/01/09 06:04:36;;;;;;;0.30;0.30;;;;;;;6.89;76.50;95334.81;4985594;28;20054;-79
2023/01/09 06:07:04;;;;;;;1.90;0.50;;;;;;;6.87;76.61;95344.56;4995045;28;20066;-81
2023/01/09 06:09:32;;;;;;;0.93;0.30;;;;;;;6.86;77.18;95342.94;4995830;28;20050;-78
2023/01/09 06:12:00;;;;;;;0.35;0.20;;;;;;;6.87;76.67;95341.19;4995032;28;20559;-80
2023/01/09 06:14:28;;;;;;;1.15;0.32;;;;;;;6.90;76.73;95338.19;4994262;28;20138;-80
2023/01/09 06:16:56;;;;;;;0.43;0.40;;;;;;;6.89;76.76;95344.38;4994154;28;20050;-79
2023/01/09 06:19:23;;;;;;;0.73;0.28;;;;;;;6.88;76.61;95348.75;4994185;28;20053;-78
2023/01/09 06:21:52;;;;;;;0.73;0.20;;;;;;;6.85;76.29;95349.13;5038629;23;20045;-75
2023/01/09 06:24:19;;;;;;;0.13;0.13;;;;;;;6.84;75.68;95357.88;5030323;28;20052;-75
2023/01/09 06:26:47;;;;;;;0.65;0.43;;;;;;;6.79;75.47;95345.50;5032705;28;20187;-75
2023/01/09 06:29:16;;;;;;;0.52;0.35;;;;;;;6.79;77.09;95358.47;5034913;28;20581;-75
2023/01/09 06:31:43;;;;;;;0.98;0.45;;;;;;;6.80;76.25;95374.84;5021966;28;20531;-76
2023/01/09 06:34:12;;;;;;;0.80;0.60;;;;;;;6.76;76.72;95363.25;5016459;28;20050;-75
2023/01/09 06:36:39;;;;;;;0.40;0.32;;;;;;;6.75;75.89;95361.63;5016162;28;20049;-75
2023/01/09 06:39:07;;;;;;;1.15;0.10;;;;;;;6.73;75.81;95379.13;5015839;28;20077;-75
2023/01/09 06:41:34;;;;;;;1.77;1.13;;;;;;;6.72;76.27;95369.78;5015720;28;20430;-75
2023/01/09 06:44:02;;;;;;;0.88;0.57;;;;;;;6.70;75.52;95366.56;5015724;28;20451;-75
2023/01/09 06:46:30;;;;;;;0.85;0.10;;;;;;;6.69;74.52;95380.50;5015202;28;20058;-74
2023/01/09 06:48:58;;;;;;;0.30;0.28;;;;;;;6.68;75.43;95377.13;5014829;28;20046;-75
2023/01/09 06:51:25;;;;;;;0.35;0.10;;;;;;;6.67;74.34;95377.28;5015039;28;20060;-75
2023/01/09 06:53:53;;;;;;;0.70;0.20;;;;;;;6.63;74.39;95376.09;5015036;28;20136;-74
2023/01/09 06:56:21;;;;;;;0.93;0.10;;;;;;;6.57;73.74;95383.59;5015249;28;20072;-75
2023/01/09 06:58:48;;;;;;;1.00;0.30;;;;;;;6.53;74.38;95374.59;5014647;28;20610;-75
2023/01/09 07:01:16;;;;;;;0.28;0.28;;;;;;;6.53;74.99;95363.44;5014939;28;20054;-75
2023/01/09 07:03:45;;;;;;;1.13;0.40;;;;;;;6.51;73.87;95381.75;5014883;28;20111;-74
2023/01/09 07:06:12;;;;;;;0.10;0.10;;;;;;;6.48;73.89;95379.53;5014591;28;20057;-75
2023/01/09 07:08:40;;;;;;;0.65;0.30;;;;;;;6.45;74.28;95368.75;5014702;28;20057;-75
2023/01/09 07:11:07;;;;;;;0.68;0.20;;;;;;;6.41;75.17;95381.28;5014443;28;20546;-75
2023/01/09 07:13:37;;;;;;;0.22;0.10;;;;;;;6.42;74.21;95382.88;5014926;28;20420;-75
2023/01/09 07:16:05;;;;;;;1.70;0.28;;;;;;;6.39;74.72;95375.47;5014864;28;20104;-74
2023/01/09 07:18:33;;;;;;;1.05;0.20;;;;;;;6.38;73.99;95384.22;5014122;28;20046;-75
2023/01/09 07:21:01;;;;;;;0.40;0.10;;;;;;;6.34;73.59;95388.16;5014300;28;20089;-75
2023/01/09 07:23:29;;;;;;;1.15;0.20;;;;;;;6.33;74.27;95386.56;5014636;28;20085;-75
2023/01/09 07:25:57;;;;;;;0.50;0.22;;;;;;;6.33;73.38;95392.56;5014781;28;20046;-75
2023/01/09 07:28:24;;;;;;;1.40;0.50;;;;;;;6.30;74.41;95403.28;5014032;28;20112;-75
2023/01/09 07:30:52;;;;;;;0.40;0.30;;;;;;;6.29;74.71;95406.06;5014277;28;20056;-75
2023/01/09 07:33:19;;;;;;;0.32;0.30;;;;;;;6.27;73.65;95408.81;5014190;28;20057;-75
2023/01/09 07:35:47;;;;;;;1.63;0.30;;;;;;;6.24;73.76;95405.81;5014300;28;20050;-75
2023/01/09 07:38:16;;;;;;;1.35;0.20;;;;;;;6.22;74.46;95415.56;5013505;28;20496;-75
2023/01/09 07:40:43;;;;;;;0.32;0.20;;;;;;;6.22;74.28;95415.56;5014096;28;20423;-75
2023/01/09 07:43:10;;;;;;;1.25;0.28;;;;;;;6.23;74.79;95427.50;5015779;28;20057;-75
2023/01/09 07:45:38;;;;;;;0.30;0.30;;;;;;;6.26;74.95;95419.38;5034087;28;20058;-75
2023/01/09 07:48:06;;;;;;;0.75;0.30;;;;;;;6.28;73.88;95432.94;5028561;28;20435;-75
2023/01/09 07:50:34;;;;;;;1.27;0.30;;;;;;;6.28;72.54;95446.69;5014836;28;20053;-75
2023/01/09 07:53:01;;;;;;;0.85;0.30;;;;;;;6.28;73.38;95456.25;5014511;28;20050;-75
2023/01/09 07:55:30;;;;;;;2.40;0.77;;;;;;;6.29;73.84;95460.44;5013861;28;20423;-75
2023/01/09 07:57:58;;;;;;;1.13;0.40;;;;;;;6.30;73.40;95454.28;5013643;28;20077;-75
2023/01/09 08:00:25;;;;;;;0.93;0.30;;;;;;;6.28;72.23;95451.09;5013579;28;20579;-75
2023/01/09 08:02:53;;;;;;;0.90;0.20;;;;;;;6.25;71.20;95465.19;5013848;28;20562;-75
2023/01/09 08:05:21;;;;;;;1.55;0.30;;;;;;;6.26;72.17;95458.22;5013628;28;20045;-75
2023/01/09 08:07:50;;;;;;;1.42;0.40;;;;;;;6.28;71.91;95458.84;5013452;28;20046;-75
2023/01/09 08:10:19;;;;;;;1.15;0.52;;;;;;;6.29;71.57;95461.25;5013631;28;20053;-75
2023/01/09 08:12:48;;;;;;;1.60;0.52;;;;;;;6.30;70.89;95456.88;5013377;28;20042;-75
2023/01/09 08:15:16;;;;;;;2.05;0.40;;;;;;;6.30;71.04;95464.66;5013806;28;20054;-75
2023/01/09 08:17:46;;;;;;;3.67;0.50;;;;;;;6.34;71.48;95465.88;5013479;28;20056;-74
2023/01/09 08:20:15;;;;;;;4.20;0.55;;;;;;;6.34;70.73;95474.47;5013387;28;20046;-75
2023/01/09 08:22:48;;;;;;;0.73;0.43;;;;;;;6.33;71.55;95461.69;5013387;28;20140;-75
2023/01/09 08:25:16;;;;;;;0.95;0.50;;;;;;;6.35;71.80;95457.13;5012961;28;20046;-75
2023/01/09 08:27:44;;;;;;;0.70;0.40;;;;;;;6.37;72.11;95475.88;5013228;28;20049;-74
2023/01/09 08:30:13;;;;;;;1.08;0.50;;;;;;;6.37;70.49;95470.69;5013140;28;20061;-75
2023/01/09 08:32:41;;;;;;;3.42;0.93;;;;;;;6.37;71.05;95465.50;5013257;28;20049;-75
2023/01/09 08:35:09;;;;;;;1.80;0.70;;;;;;;6.38;70.92;95464.53;5013239;28;20049;-75
2023/01/09 08:37:37;;;;;;;1.25;0.47;;;;;;;6.44;71.99;95468.19;5013077;28;20053;-75
2023/01/09 08:40:05;;;;;;;1.48;0.47;;;;;;;6.46;71.01;95459.22;5013088;28;20052;-75
2023/01/09 08:48:16;;;;;;;2.00;0.22;;;;;;;6.59;70.38;95443.03;4971459;28;20054;-75
2023/01/09 08:50:45;;;;;;;2.17;1.00;;;;;;;6.63;70.04;95438.28;5002311;28;20042;-75
2023/01/09 08:53:14;;;;;;;0.73;0.28;;;;;;;6.66;69.85;95443.88;5012946;28;20079;-75
2023/01/09 08:55:41;;;;;;;1.20;0.40;;;;;;;6.67;69.97;95439.47;5012683;28;20054;-75
2023/01/09 08:58:09;;;;;;;1.85;0.17;;;;;;;6.67;69.19;95429.13;5012562;28;20085;-75
2023/01/09 09:00:38;;;;;;;0.80;0.40;;;;;;;6.68;68.84;95426.34;5012614;28;20046;-75
2023/01/09 09:03:05;;;;;;;2.50;0.30;;;;;;;6.68;68.64;95423.75;5013309;28;20506;-75
2023/01/09 09:05:33;;;;;;;3.53;0.80;;;;;;;6.69;68.64;95429.75;5012959;28;20053;-75
2023/01/09 09:08:02;;;;;;;1.52;0.52;;;;;;;6.68;67.43;95439.31;5012564;28;20058;-75
2023/01/09 09:10:30;;;;;;;4.15;1.17;;;;;;;6.69;68.35;95440.09;5012599;28;20076;-74
2023/01/09 09:12:59;;;;;;;1.58;0.40;;;;;;;6.72;67.97;95442.34;5012522;28;20046;-75
2023/01/09 09:15:28;;;;;;;2.50;0.55;;;;;;;6.72;67.21;95445.72;5012918;28;20054;-75
2023/01/09 09:17:59;;;;;;;5.30;0.50;;;;;;;6.76;67.56;95439.19;5012388;28;20052;-75
2023/01/09 09:20:29;;;;;;;1.95;0.70;;;;;;;6.80;69.20;95450.00;5012494;28;20061;-75
2023/01/09 09:22:56;;;;;;;2.55;0.60;;;;;;;6.81;67.13;95441.22;5012474;28;20061;-75
2023/01/09 09:25:24;;;;;;;2.35;0.98;;;;;;;6.82;67.38;95445.41;5012495;28;20057;-75
2023/01/09 09:27:54;;;;;;;2.00;0.70;;;;;;;6.81;66.46;95431.66;5011995;28;20136;-75
2023/01/09 09:30:23;;;;;;;1.65;0.40;;;;;;;6.84;67.30;95451.19;5012338;28;20050;-75
2023/01/09 09:32:51;;;;;;;2.42;0.50;;;;;;;6.84;66.91;95445.22;5012289;28;20053;-74
2023/01/09 09:35:21;;;;;;;1.65;0.45;;;;;;;6.84;68.15;95451.19;5012671;28;20045;-75
2023/01/09 09:37:56;;;;;;;2.53;0.68;;;;;;;6.89;69.13;95458.44;5012440;28;20059;-75
2023/01/09 09:41:06;;;;;;;6.68;1.38;;;;;;;6.93;68.94;95454.47;5012157;28;20050;-75
2023/01/09 09:46:56;;;;;;;5.38;1.23;;;;;;;7.00;68.50;95466.50;5012229;28;20057;-75
2023/01/09 09:49:30;;;;;;;2.80;1.52;;;;;;;7.04;68.97;95461.75;5012373;28;20077;-74
2023/01/09 09:52:07;;;;;;;1.70;1.00;;;;;;;7.05;69.74;95478.91;5012145;28;20052;-75
2023/01/09 09:54:40;;;;;;;3.25;0.65;;;;;;;7.08;69.22;95469.94;5012234;28;20053;-75
2023/01/09 09:57:14;;;;;;;2.35;1.20;;;;;;;7.11;69.63;95469.59;5012053;28;20066;-75
2023/01/09 09:59:43;;;;;;;2.80;0.70;;;;;;;7.14;69.76;95471.81;5011994;28;20424;-75
2023/01/09 10:02:24;;;;;;;3.17;0.60;;;;;;;7.17;67.78;95471.41;5015472;28;20595;-75
2023/01/09 10:04:59;;;;;;;0.60;0.60;;;;;;;7.18;66.87;95462.66;5015815;28;20133;-75
2023/01/09 10:07:32;;;;;;;1.95;0.63;;;;;;;7.16;66.68;95460.25;5015911;28;20057;-75
2023/01/09 10:10:03;;;;;;;2.10;0.40;;;;;;;7.18;68.41;95462.66;5015675;28;20053;-75
2023/01/09 10:12:35;;;;;;;1.83;0.88;;;;;;;7.21;67.58;95457.09;5015642;28;20042;-75
2023/01/09 10:15:13;;;;;;;3.42;0.60;;;;;;;7.26;68.87;95454.75;5015945;28;20065;-74
2023/01/09 10:17:55;;;;;;;3.25;0.93;;;;;;;7.31;69.21;95454.19;5015492;28;20129;-75
2023/01/09 10:20:58;;;;;;;2.58;0.57;;;;;;;7.33;68.37;95465.97;5015322;28;20522;-75
2023/01/09 10:23:59;;;;;;;6.05;0.73;;;;;;;7.36;68.12;95465.56;5014089;28;20049;-75
2023/01/09 10:26:30;;;;;;;4.03;0.70;;;;;;;7.37;66.38;95464.59;5030501;28;20084;-75
2023/01/09 10:29:28;;;;;;;2.28;0.45;;;;;;;7.39;68.66;95470.41;5024073;28;20053;-75
2023/01/09 10:32:14;;;;;;;1.40;0.50;;;;;;;7.42;67.94;95474.41;5009463;28;20057;-75
2023/01/09 10:34:50;;;;;;;10.18;1.25;;;;;;;7.43;67.81;95476.00;5015531;28;20056;-75
2023/01/09 10:37:22;;;;;;;2.33;0.63;;;;;;;7.42;67.93;95477.00;5015398;28;20050;-75
2023/01/09 10:39:55;;;;;;;2.30;0.70;;;;;;;7.45;66.46;95473.22;5015253;28;20062;-75
2023/01/09 10:42:30;;;;;;;3.53;1.17;;;;;;;7.45;65.19;95475.81;5015218;28;20056;-75
2023/01/09 10:45:05;;;;;;;1.42;0.70;;;;;;;7.43;66.01;95466.44;5015550;28;20527;-75
2023/01/09 10:47:35;;;;;;;1.65;0.77;;;;;;;7.43;66.81;95469.03;5015324;28;20057;-75
2023/01/09 10:50:18;;;;;;;3.78;0.95;;;;;;;7.43;66.25;95463.84;5014957;28;20054;-75
2023/01/09 10:52:46;;;;;;;;;;;;;;;7.46;67.00;95452.28;5015663;28;20046;-75
2023/01/09 10:55:19;;;;;;;3.47;0.70;;;;;;;7.45;67.14;95455.06;5015060;28;20403;-75
2023/01/09 10:57:53;;;;;;;2.22;0.47;;;;;;;7.44;66.24;95454.25;5015384;28;20042;-74
2023/01/09 11:00:23;;;;;;;2.83;0.80;;;;;;;7.38;65.94;95458.41;5016228;28;20057;-75
2023/01/09 11:02:52;;;;;;;2.78;1.23;;;;;;;7.40;66.56;95456.41;5015976;28;20302;-75
2023/01/09 11:05:22;;;;;;;3.00;1.00;;;;;;;7.41;66.38;95452.84;5015677;28;20061;-75
2023/01/09 11:07:54;;;;;;;4.28;0.60;;;;;;;7.45;66.71;95452.47;5014934;28;20052;-75
2023/01/09 11:10:23;;;;;;;1.15;0.50;;;;;;;7.46;65.35;95446.28;5015101;28;20140;-76
2023/01/09 11:12:50;;;;;;;2.10;0.50;;;;;;;7.47;65.59;95440.09;5014374;28;20415;-75
2023/01/09 11:15:28;;;;;;;1.83;0.65;;;;;;;7.48;65.44;95436.50;5014773;28;20057;-75
2023/01/09 11:18:21;;;;;;;1.08;0.60;;;;;;;7.51;63.13;95436.94;5014505;28;20056;-75
2023/01/09 11:20:48;;;;;;;0.90;0.30;;;;;;;7.55;65.54;95437.34;5014652;28;20050;-75
2023/01/09 11:23:26;;;;;;;2.05;0.55;;;;;;;7.60;63.74;95440.19;5014852;28;20428;-75
2023/01/09 11:25:57;;;;;;;2.88;0.57;;;;;;;7.66;66.53;95439.41;5014533;28;20542;-75
2023/01/09 11:28:25;;;;;;;3.33;0.75;;;;;;;7.68;66.22;95440.03;5014088;28;20056;-75
2023/01/09 11:30:55;;;;;;;2.88;0.68;;;;;;;7.72;66.14;95443.03;5014177;28;20050;-75
2023/01/09 11:33:24;;;;;;;2.67;0.75;;;;;;;7.73;66.07;95445.44;5014142;28;20501;-75
2023/01/09 11:36:02;;;;;;;4.18;1.30;;;;;;;7.74;65.26;95446.22;5014222;28;20061;-75
2023/01/09 11:38:33;;;;;;;2.13;0.77;;;;;;;7.75;65.19;95453.81;5014066;28;20119;-75
2023/01/09 11:41:05;;;;;;;1.05;0.50;;;;;;;7.78;64.39;95448.28;5014144;28;20050;-75
2023/01/09 11:43:36;;;;;;;2.80;0.93;;;;;;;7.81;65.36;95450.47;5014052;28;20136;-75
2023/01/09 11:46:07;;;;;;;2.97;0.60;;;;;;;7.79;64.44;95449.88;5013903;28;20149;-75
2023/01/09 11:48:38;;;;;;;1.05;0.43;;;;;;;7.82;65.38;95459.84;5013639;28;20155;-75
2023/01/09 11:51:18;;;;;;;1.95;0.68;;;;;;;7.84;64.68;95447.47;5013690;28;20052;-75
2023/01/09 11:53:55;;;;;;;4.38;0.77;;;;;;;7.86;64.34;95444.69;5013768;28;20050;-75
2023/01/09 11:56:25;;;;;;;4.50;1.38;;;;;;;7.89;65.76;95453.91;5013753;28;20049;-75
2023/01/09 11:58:52;;;;;;;3.78;1.33;;;;;;;7.89;66.16;95448.69;5013622;28;20515;-75
2023/01/09 12:01:40;;;;;;;2.13;0.60;;;;;;;7.89;65.63;95443.50;5013316;28;20050;-75
2023/01/09 12:04:27;;;;;;;3.25;1.20;;;;;;;7.88;64.64;95458.28;5013467;28;20046;-75
2023/01/09 12:07:37;;;;;;;4.35;1.38;;;;;;;7.90;64.76;95465.91;5013821;28;20064;-75
2023/01/09 12:10:22;;;;;;;5.05;0.57;;;;;;;7.88;65.87;95465.28;4996277;28;20061;-74